Time;durP1;ratioP1;P1;durP2;ratioP2;P2;SDS_P1;SDS_P2;PMS_P1;PMS_P2;Temp;Humidity;BMP_temperature;BMP_pressure;BME280_temperature;BME280_humidity;BME280_pressure;Samples;Min_cycle;Max_cycle;Signal;HPM_P1;HPM_P2
2022/08/13 00:01:15;;;;;;;4.25;2.33;;;18.30;99.90;;;;;;5107128;28;20150;-82
2022/08/13 00:03:42;;;;;;;2.70;2.00;;;18.20;99.90;;;;;;5087843;28;20091;-82
2022/08/13 00:06:10;;;;;;;2.50;1.63;;;18.20;99.90;;;;;;5071900;28;20120;-82
2022/08/13 00:08:37;;;;;;;2.92;1.75;;;18.20;99.90;;;;;;5106491;28;20392;-82
2022/08/13 00:11:05;;;;;;;8.70;2.17;;;18.20;99.90;;;;;;5054068;28;20039;-82
2022/08/13 00:13:31;;;;;;;9.05;2.10;;;18.20;99.90;;;;;;5089433;28;20062;-82
2022/08/13 00:15:59;;;;;;;2.42;1.40;;;18.20;99.90;;;;;;5087249;28;20116;-82
2022/08/13 00:18:26;;;;;;;3.95;2.35;;;18.20;99.90;;;;;;5073313;28;20048;-82
2022/08/13 00:20:58;;;;;;;2.88;1.65;;;18.10;99.90;;;;;;5071310;28;20043;-82
2022/08/13 00:23:29;;;;;;;6.07;2.38;;;18.20;99.90;;;;;;5105560;28;20047;-82
2022/08/13 00:25:57;;;;;;;2.28;2.03;;;18.10;99.90;;;;;;5089287;28;20608;-82
2022/08/13 00:28:26;;;;;;;2.10;1.75;;;18.10;99.90;;;;;;5086888;28;20038;-82
2022/08/13 00:30:52;;;;;;;3.72;2.13;;;18.10;99.90;;;;;;5105955;28;20072;-82
2022/08/13 00:33:20;;;;;;;4.68;2.45;;;17.20;99.90;;;;;;5070317;28;20478;-82
2022/08/13 00:35:49;;;;;;;4.43;1.70;;;18.10;99.90;;;;;;5072390;28;20036;-82
2022/08/13 00:38:24;;;;;;;3.72;2.00;;;18.00;99.90;;;;;;5106172;28;20085;-82
2022/08/13 00:40:57;;;;;;;5.30;1.70;;;18.00;99.90;;;;;;5107545;28;20565;-82
2022/08/13 00:43:24;;;;;;;4.20;2.28;;;18.00;99.90;;;;;;5110132;28;20062;-82
2022/08/13 00:45:50;;;;;;;7.32;2.15;;;18.00;99.90;;;;;;5107376;28;20043;-82
2022/08/13 00:51:01;;;;;;;7.05;2.40;;;17.90;99.90;;;;;;5108726;28;20449;-82
2022/08/13 00:53:30;;;;;;;8.50;2.35;;;17.80;99.90;;;;;;5108086;28;20547;-82
2022/08/13 00:55:58;;;;;;;4.60;2.05;;;17.80;99.90;;;;;;5109855;28;20599;-82
2022/08/13 00:58:27;;;;;;;3.97;1.83;;;17.80;99.90;;;;;;5106987;28;20077;-82
2022/08/13 01:00:58;;;;;;;8.40;2.65;;;17.80;99.90;;;;;;5109953;28;20404;-82
2022/08/13 01:03:26;;;;;;;6.07;2.03;;;18.50;99.90;;;;;;5090829;28;20614;-82
2022/08/13 01:05:56;;;;;;;2.55;2.17;;;17.70;99.90;;;;;;5108996;28;20035;-83
2022/08/13 01:08:22;;;;;;;2.40;1.70;;;17.70;99.90;;;;;;5076309;28;20441;-82
2022/08/13 01:10:49;;;;;;;6.40;2.10;;;17.70;99.90;;;;;;5056886;28;20051;-82
2022/08/13 01:13:17;;;;;;;4.32;1.80;;;17.70;99.90;;;;;;5075633;28;20051;-82
2022/08/13 01:15:44;;;;;;;4.95;1.90;;;18.00;99.90;;;;;;5089768;28;20080;-82
2022/08/13 01:18:13;;;;;;;2.28;1.83;;;17.70;99.90;;;;;;5092223;28;20097;-82
2022/08/13 01:20:48;;;;;;;3.60;1.95;;;17.60;99.90;;;;;;5090964;28;20052;-82
2022/08/13 01:23:15;;;;;;;4.22;2.40;;;17.50;99.90;;;;;;5107984;28;20040;-82
2022/08/13 01:25:42;;;;;;;3.40;2.00;;;17.50;99.90;;;;;;5075682;28;20046;-82
2022/08/13 01:28:08;;;;;;;4.53;1.65;;;17.50;99.90;;;;;;5089574;28;20044;-82
2022/08/13 01:30:34;;;;;;;7.43;2.40;;;17.50;99.90;;;;;;5093766;27;20040;-83
2022/08/13 01:33:05;;;;;;;3.90;2.45;;;17.40;99.90;;;;;;5109592;27;20039;-82
2022/08/13 01:35:32;;;;;;;3.05;2.22;;;17.40;99.90;;;;;;5095827;27;20288;-83
2022/08/13 01:37:58;;;;;;;3.65;2.25;;;17.40;99.90;;;;;;5111105;27;20047;-82
2022/08/13 01:40:24;;;;;;;8.27;2.42;;;17.40;99.90;;;;;;5077284;27;20054;-82
2022/08/13 01:42:50;;;;;;;3.53;2.70;;;17.30;99.90;;;;;;5095605;27;20035;-82
2022/08/13 01:45:17;;;;;;;3.60;1.95;;;17.30;99.90;;;;;;5092581;27;20047;-82
2022/08/13 01:50:29;;;;;;;5.10;2.50;;;17.30;99.90;;;;;;5110346;27;20077;-82
2022/08/13 01:53:07;;;;;;;8.02;2.55;;;17.30;99.90;;;;;;5111733;27;20039;-82
2022/08/13 01:55:43;;;;;;;4.45;2.60;;;17.20;99.90;;;;;;5111898;27;20047;-82
2022/08/13 01:58:21;;;;;;;5.80;2.92;;;17.20;99.90;;;;;;5109079;27;20054;-82
2022/08/13 02:00:54;;;;;;;4.55;2.60;;;17.20;99.90;;;;;;5095279;27;20043;-82
2022/08/13 02:03:21;;;;;;;4.18;2.50;;;17.20;99.90;;;;;;5109478;27;20039;-82
2022/08/13 02:05:48;;;;;;;4.75;2.33;;;17.20;99.90;;;;;;5077633;27;20035;-82
2022/08/13 02:08:20;;;;;;;7.20;2.75;;;17.10;99.90;;;;;;5094446;27;20043;-82
2022/08/13 02:10:47;;;;;;;3.25;2.75;;;17.10;99.90;;;;;;5092634;27;20047;-82
2022/08/13 02:13:16;;;;;;;5.57;2.67;;;17.10;99.90;;;;;;5094665;27;20044;-82
2022/08/13 02:15:44;;;;;;;15.05;2.22;;;17.00;99.90;;;;;;5092239;27;20043;-82
2022/08/13 02:18:17;;;;;;;4.68;2.40;;;17.10;99.90;;;;;;5077653;27;20180;-82
2022/08/13 02:20:48;;;;;;;2.45;2.05;;;17.00;99.90;;;;;;5110597;27;20039;-82
2022/08/13 02:23:19;;;;;;;4.05;2.45;;;17.00;99.90;;;;;;5110120;27;20558;-82
2022/08/13 02:25:46;;;;;;;3.20;2.15;;;16.80;99.90;;;;;;5111182;27;20454;-82
2022/08/13 02:28:14;;;;;;;6.45;2.97;;;17.00;99.90;;;;;;5091816;27;20490;-82
2022/08/13 02:30:41;;;;;;;5.75;2.83;;;16.90;99.90;;;;;;5110941;27;20051;-82
2022/08/13 02:33:08;;;;;;;3.92;2.33;;;16.90;99.90;;;;;;5091821;27;20126;-82
2022/08/13 02:35:35;;;;;;;4.47;2.65;;;16.90;99.90;;;;;;5094514;27;20043;-82
2022/08/13 02:38:02;;;;;;;3.30;2.38;;;16.90;99.90;;;;;;5076903;27;20035;-82
2022/08/13 02:43:12;;;;;;;7.20;2.28;;;16.90;99.90;;;;;;5111025;27;20574;-82
2022/08/13 02:45:39;;;;;;;3.05;2.55;;;16.80;99.90;;;;;;5091417;27;20042;-82
2022/08/13 02:48:08;;;;;;;3.47;2.70;;;16.80;99.90;;;;;;5111048;27;20497;-82
2022/08/13 02:50:42;;;;;;;4.70;2.17;;;16.80;99.90;;;;;;5108924;27;20115;-82
2022/08/13 02:53:09;;;;;;;3.65;2.60;;;16.80;99.90;;;;;;5094091;27;20046;-83
2022/08/13 02:55:36;;;;;;;3.70;2.38;;;16.80;99.90;;;;;;5094191;27;20031;-82
2022/08/13 02:58:04;;;;;;;3.65;2.50;;;16.80;99.90;;;;;;5108349;27;20092;-82
2022/08/13 03:00:30;;;;;;;3.28;2.53;;;16.80;99.90;;;;;;5093644;27;20031;-82
2022/08/13 03:02:56;;;;;;;6.05;2.65;;;16.70;99.90;;;;;;5073938;27;20084;-82
2022/08/13 03:05:22;;;;;;;8.00;3.08;;;16.70;99.90;;;;;;5093598;27;20370;-82
2022/08/13 03:07:49;;;;;;;5.18;2.70;;;16.70;99.90;;;;;;5092256;27;20308;-82
2022/08/13 03:10:17;;;;;;;3.08;2.47;;;16.70;99.90;;;;;;5109152;27;20039;-82
2022/08/13 03:12:49;;;;;;;3.05;2.47;;;16.70;99.90;;;;;;5093445;27;20039;-82
2022/08/13 03:15:17;;;;;;;5.25;2.53;;;16.60;99.90;;;;;;5107948;27;20087;-82
2022/08/13 03:17:43;;;;;;;4.25;2.47;;;16.60;99.90;;;;;;5093603;28;20039;-82
2022/08/13 03:20:15;;;;;;;4.93;2.92;;;16.60;99.90;;;;;;5091478;27;20054;-82
2022/08/13 03:22:47;;;;;;;3.33;2.65;;;16.60;99.90;;;;;;5109919;27;20043;-82
2022/08/13 03:25:14;;;;;;;5.27;2.70;;;16.60;99.90;;;;;;5110153;27;20090;-82
2022/08/13 03:27:40;;;;;;;3.45;2.80;;;16.60;99.90;;;;;;5108248;27;20049;-82
2022/08/13 03:30:07;;;;;;;3.78;3.15;;;16.50;99.90;;;;;;5093674;27;20035;-82
2022/08/13 03:32:41;;;;;;;3.72;2.90;;;16.50;99.90;;;;;;5053485;28;20055;-82
2022/08/13 03:35:15;;;;;;;4.80;2.85;;;16.50;99.90;;;;;;5073752;28;20054;-82
2022/08/13 03:37:43;;;;;;;4.90;3.30;;;16.40;99.90;;;;;;5105439;28;20051;-82
2022/08/13 03:40:11;;;;;;;4.30;2.35;;;16.40;99.90;;;;;;5105592;28;20043;-82
2022/08/13 03:42:39;;;;;;;4.63;2.83;;;16.40;99.90;;;;;;5089483;28;20044;-82
2022/08/13 03:45:06;;;;;;;8.05;3.28;;;16.40;99.90;;;;;;5087797;28;20093;-82
2022/08/13 03:47:32;;;;;;;6.43;2.85;;;16.40;99.90;;;;;;5089978;28;20043;-82
2022/08/13 03:50:00;;;;;;;4.65;3.05;;;16.40;99.90;;;;;;5087710;28;20043;-82
2022/08/13 03:52:27;;;;;;;3.40;2.55;;;16.30;99.90;;;;;;5106660;28;20089;-82
2022/08/13 03:54:52;;;;;;;8.10;2.95;;;16.30;99.90;;;;;;5105168;28;20090;-82
2022/08/13 03:57:19;;;;;;;3.97;3.00;;;16.30;99.90;;;;;;5088432;28;20079;-82
2022/08/13 03:59:47;;;;;;;10.45;3.22;;;16.30;99.90;;;;;;5073113;28;20048;-82
2022/08/13 04:02:15;;;;;;;4.68;2.55;;;16.20;99.90;;;;;;5070616;28;20036;-82
2022/08/13 04:04:46;;;;;;;5.63;3.22;;;16.20;99.90;;;;;;5090174;28;20047;-82
2022/08/13 04:07:14;;;;;;;5.43;2.30;;;16.30;99.90;;;;;;5072033;28;20055;-82
2022/08/13 04:09:40;;;;;;;4.05;2.83;;;16.20;99.90;;;;;;5106104;28;20102;-82
2022/08/13 04:12:10;;;;;;;4.20;2.72;;;16.10;99.90;;;;;;5088401;28;20481;-82
2022/08/13 04:14:35;;;;;;;3.58;2.65;;;16.10;99.90;;;;;;5090729;28;20092;-82
2022/08/13 04:17:05;;;;;;;5.20;2.97;;;16.10;99.90;;;;;;5093425;28;20051;-82
2022/08/13 04:19:32;;;;;;;3.50;2.80;;;16.10;99.90;;;;;;5074314;28;20040;-82
2022/08/13 04:21:57;;;;;;;5.60;2.58;;;16.10;99.90;;;;;;5093168;28;20047;-82
2022/08/13 04:24:24;;;;;;;3.63;2.83;;;16.10;99.90;;;;;;5073910;28;20055;-82
2022/08/13 04:26:49;;;;;;;4.18;3.20;;;16.10;99.90;;;;;;5093287;28;20047;-82
2022/08/13 04:29:18;;;;;;;4.63;2.88;;;16.10;99.90;;;;;;5075820;28;20366;-82
2022/08/13 04:31:45;;;;;;;5.82;3.17;;;16.10;99.90;;;;;;5091089;28;20490;-82
2022/08/13 04:34:11;;;;;;;7.07;2.78;;;16.10;99.90;;;;;;5093127;28;20051;-82
2022/08/13 04:36:36;;;;;;;4.05;3.15;;;16.10;99.90;;;;;;5090509;28;20043;-82
2022/08/13 04:39:02;;;;;;;3.53;2.63;;;16.20;99.90;;;;;;5092898;28;20475;-82
2022/08/13 04:41:28;;;;;;;6.28;2.88;;;16.20;99.90;;;;;;5090506;28;20044;-82
2022/08/13 04:43:54;;;;;;;3.42;2.67;;;16.20;99.90;;;;;;5075772;28;20035;-82
2022/08/13 04:46:19;;;;;;;5.15;3.00;;;16.60;99.90;;;;;;5091827;28;20077;-82
2022/08/13 04:48:46;;;;;;;6.80;3.28;;;16.20;99.90;;;;;;5074250;28;20436;-82
2022/08/13 04:51:11;;;;;;;3.92;2.85;;;16.20;99.90;;;;;;5109796;28;20050;-82
2022/08/13 04:53:38;;;;;;;5.00;3.35;;;16.90;99.90;;;;;;5107642;28;20035;-82
2022/08/13 04:56:04;;;;;;;8.50;3.47;;;16.30;99.90;;;;;;5076034;28;20592;-82
2022/08/13 04:58:35;;;;;;;5.30;3.08;;;16.30;99.90;;;;;;5107222;28;20486;-82
2022/08/13 05:01:06;;;;;;;7.95;3.70;;;16.40;99.90;;;;;;5092961;28;20096;-82
2022/08/13 05:03:32;;;;;;;6.38;3.20;;;16.40;99.90;;;;;;5092059;28;20379;-82
2022/08/13 05:05:57;;;;;;;5.05;2.97;;;16.40;99.90;;;;;;5108207;28;20046;-82
2022/08/13 05:08:23;;;;;;;6.10;3.13;;;16.50;99.90;;;;;;5092364;28;20078;-82
2022/08/13 05:10:51;;;;;;;5.32;3.20;;;16.50;99.90;;;;;;5090234;28;20400;-82
2022/08/13 05:13:30;;;;;;;7.03;3.67;;;16.50;99.90;;;;;;5075553;28;20085;-82
2022/08/13 05:16:00;;;;;;;12.95;3.53;;;16.60;99.90;;;;;;5090450;28;20075;-82
2022/08/13 05:18:30;;;;;;;5.40;4.05;;;17.00;99.90;;;;;;5091595;28;20047;-82
2022/08/13 05:21:03;;;;;;;6.40;3.53;;;16.80;99.90;;;;;;5108965;28;20043;-82
2022/08/13 05:23:30;;;;;;;4.80;3.47;;;16.80;99.90;;;;;;5107123;28;20475;-83
2022/08/13 05:25:59;;;;;;;8.50;3.45;;;16.90;99.90;;;;;;5091804;28;20117;-83
2022/08/13 05:28:26;;;;;;;4.78;3.22;;;16.90;99.90;;;;;;5089678;28;20050;-82
2022/08/13 05:30:51;;;;;;;5.93;2.85;;;17.00;99.90;;;;;;5109187;27;20126;-83
2022/08/13 05:33:23;;;;;;;4.75;3.20;;;17.30;99.90;;;;;;5077404;27;20483;-82
2022/08/13 05:35:55;;;;;;;5.78;3.03;;;17.20;99.90;;;;;;5094585;27;20056;-82
2022/08/13 05:38:23;;;;;;;10.30;3.58;;;17.30;99.90;;;;;;5095677;27;20398;-83
2022/08/13 05:40:53;;;;;;;6.63;3.25;;;17.40;99.90;;;;;;5109994;27;20680;-82
2022/08/13 05:43:23;;;;;;;8.88;4.03;;;17.50;99.90;;;;;;5095422;27;20043;-82
2022/08/13 05:45:59;;;;;;;5.85;3.03;;;17.60;99.90;;;;;;5092877;27;20161;-82
2022/08/13 05:48:27;;;;;;;6.70;3.03;;;17.70;99.90;;;;;;5111120;27;20492;-82
2022/08/13 05:50:54;;;;;;;6.03;3.10;;;17.80;99.90;;;;;;5111726;27;20139;-82
2022/08/13 05:53:21;;;;;;;3.70;3.15;;;17.90;99.90;;;;;;5109982;27;20604;-83
2022/08/13 05:55:47;;;;;;;6.20;2.50;;;18.00;99.90;;;;;;5095322;27;20091;-83
2022/08/13 05:58:13;;;;;;;3.50;2.17;;;18.10;99.90;;;;;;5092038;27;20035;-82
2022/08/13 06:03:25;;;;;;;6.22;3.42;;;18.40;99.90;;;;;;5096274;27;20057;-83
2022/08/13 06:06:06;;;;;;;3.78;2.72;;;18.50;99.90;;;;;;5093107;27;20043;-81
2022/08/13 06:08:35;;;;;;;7.80;3.00;;;18.70;99.90;;;;;;5095237;27;20379;-82
2022/08/13 06:11:21;;;;;;;3.33;1.90;;;18.80;99.90;;;;;;5092233;27;20096;-82
2022/08/13 06:13:48;;;;;;;8.23;2.78;;;18.90;99.90;;;;;;5077322;27;20561;-82
2022/08/13 06:16:20;;;;;;;10.50;2.17;;;19.00;99.90;;;;;;5110164;27;20090;-83
2022/08/13 06:18:48;;;;;;;6.82;2.83;;;19.10;99.90;;;;;;5092766;27;20039;-83
2022/08/13 06:21:16;;;;;;;5.47;2.50;;;19.20;99.90;;;;;;5111324;27;20047;-82
2022/08/13 06:23:45;;;;;;;5.75;2.78;;;19.40;99.90;;;;;;5091961;27;20045;-83
2022/08/13 06:26:14;;;;;;;4.93;2.60;;;19.50;99.90;;;;;;5111241;27;20058;-83
2022/08/13 06:28:40;;;;;;;3.78;2.45;;;19.60;99.90;;;;;;5109378;27;20065;-83
2022/08/13 06:31:11;;;;;;;5.50;2.10;;;19.70;99.90;;;;;;5076674;27;20075;-83
2022/08/13 06:33:37;;;;;;;4.50;2.53;;;19.80;99.90;;;;;;5110482;27;20047;-84
2022/08/13 06:36:08;;;;;;;5.13;2.53;;;19.90;99.90;;;;;;5090925;27;20078;-83
2022/08/13 06:38:35;;;;;;;6.68;3.22;;;20.10;99.90;;;;;;5110904;27;20035;-86
2022/08/13 06:41:04;;;;;;;7.57;2.55;;;20.10;99.90;;;;;;5108032;27;20509;-86
2022/08/13 06:43:35;;;;;;;4.25;2.13;;;20.30;99.90;;;;;;5094073;27;20035;-86
2022/08/13 06:46:03;;;;;;;3.33;2.20;;;20.40;99.90;;;;;;5109640;27;20077;-86
2022/08/13 06:48:29;;;;;;;8.40;2.28;;;20.50;99.90;;;;;;5109955;27;20043;-85
2022/08/13 06:50:55;;;;;;;7.45;2.20;;;20.60;99.90;;;;;;5110358;27;20039;-86
2022/08/13 06:53:21;;;;;;;4.60;1.73;;;20.80;99.90;;;;;;5074741;27;20375;-87
2022/08/13 06:55:49;;;;;;;4.50;1.55;;;20.90;99.90;;;;;;5110610;27;20453;-87
2022/08/13 06:58:15;;;;;;;2.88;2.10;;;21.00;99.90;;;;;;5107744;27;20046;-86
2022/08/13 07:00:43;;;;;;;3.00;2.13;;;21.10;99.90;;;;;;5093716;27;20039;-88
2022/08/13 07:03:10;;;;;;;4.78;2.20;;;21.30;99.90;;;;;;5091585;27;20259;-89
2022/08/13 07:05:41;;;;;;;8.05;1.90;;;21.30;99.90;;;;;;5075695;27;20043;-86
2022/08/13 07:08:09;;;;;;;2.28;1.92;;;21.50;99.90;;;;;;5093484;27;20039;-86
2022/08/13 07:10:36;;;;;;;3.60;1.98;;;21.60;99.90;;;;;;5090590;27;20367;-85
2022/08/13 07:13:05;;;;;;;5.65;2.00;;;21.70;99.90;;;;;;5093430;27;20090;-89
2022/08/13 07:15:31;;;;;;;5.80;3.58;;;21.80;99.90;;;;;;5090382;27;20375;-87
2022/08/13 07:17:59;;;;;;;4.00;1.92;;;21.90;99.90;;;;;;5076303;27;20347;-87
2022/08/13 07:20:25;;;;;;;2.80;1.80;;;22.00;99.90;;;;;;5075162;27;20031;-87
2022/08/13 07:22:55;;;;;;;2.35;1.80;;;22.20;99.90;;;;;;5092184;27;20039;-86
2022/08/13 07:25:23;;;;;;;3.92;1.95;;;22.30;99.90;;;;;;5093424;28;20162;-86
2022/08/13 07:27:51;;;;;;;3.45;1.90;;;22.50;99.90;;;;;;5107856;28;20055;-87
2022/08/13 07:30:18;;;;;;;6.85;1.55;;;22.60;99.90;;;;;;5076198;27;20042;-87
2022/08/13 07:32:44;;;;;;;3.83;1.58;;;22.70;99.90;;;;;;5090310;28;20138;-86
2022/08/13 07:35:11;;;;;;;2.25;1.35;;;22.90;99.90;;;;;;5075618;28;20129;-89
2022/08/13 07:37:39;;;;;;;2.95;1.40;;;23.00;99.90;;;;;;5091899;28;20043;-88
2022/08/13 07:40:09;;;;;;;6.07;1.30;;;23.10;99.90;;;;;;5091429;28;20058;-88
2022/08/13 07:42:40;;;;;;;1.98;1.20;;;23.20;99.90;;;;;;5109889;28;20112;-88
2022/08/13 07:45:11;;;;;;;2.88;1.10;;;23.30;99.90;;;;;;5107310;28;20092;-87
2022/08/13 07:47:40;;;;;;;1.58;0.95;;;23.50;99.90;;;;;;5094635;27;20476;-88
2022/08/13 07:50:10;;;;;;;1.58;0.90;;;23.60;99.90;;;;;;5078334;27;20137;-87
2022/08/13 07:52:38;;;;;;;1.63;0.77;;;23.80;99.90;;;;;;5113338;27;20115;-88
2022/08/13 07:55:05;;;;;;;4.30;1.42;;;23.90;99.90;;;;;;5079969;27;20043;-88
2022/08/13 07:57:32;;;;;;;3.05;1.08;;;24.00;99.90;;;;;;5061023;27;20543;-87
2022/08/13 07:59:58;;;;;;;2.33;1.05;;;24.20;99.90;;;;;;5113663;27;20039;-87
2022/08/13 08:02:25;;;;;;;1.85;0.90;;;24.40;99.80;;;;;;5077146;27;20064;-88
2022/08/13 08:04:55;;;;;;;3.88;0.80;;;24.50;99.50;;;;;;5096423;27;20039;-88
2022/08/13 08:07:22;;;;;;;2.80;1.52;;;24.70;99.00;;;;;;5077917;27;20043;-88
2022/08/13 08:09:50;;;;;;;1.85;0.90;;;24.80;98.10;;;;;;5112994;27;20469;-87
2022/08/13 08:12:35;;;;;;;2.55;0.90;;;25.00;97.20;;;;;;5096423;27;20107;-88
2022/08/13 08:15:05;;;;;;;3.17;0.90;;;25.10;96.60;;;;;;5111510;27;20043;-89
2022/08/13 08:17:31;;;;;;;1.75;1.10;;;25.30;96.10;;;;;;5113573;27;20095;-88
2022/08/13 08:19:57;;;;;;;2.88;0.98;;;25.40;95.30;;;;;;5077691;27;20051;-88
2022/08/13 08:22:23;;;;;;;6.07;1.10;;;25.50;95.00;;;;;;5096062;27;20039;-88
2022/08/13 08:24:50;;;;;;;1.70;0.80;;;25.70;94.50;;;;;;5079045;27;20051;-88
2022/08/13 08:27:17;;;;;;;1.63;1.00;;;25.80;93.50;;;;;;5094184;27;20541;-88
2022/08/13 08:29:46;;;;;;;1.77;0.70;;;25.80;92.50;;;;;;5095944;27;20047;-88
2022/08/13 08:32:14;;;;;;;2.42;0.85;;;25.90;91.80;;;;;;5076329;27;20536;-88
2022/08/13 08:34:46;;;;;;;2.15;0.85;;;26.00;92.00;;;;;;5113527;27;20043;-88
2022/08/13 08:42:56;;;;;;;2.47;0.80;;;26.50;90.10;;;;;;5098588;27;20058;-87
2022/08/13 08:45:24;;;;;;;3.33;0.80;;;26.60;87.60;;;;;;5110508;27;20382;-87
2022/08/13 08:47:52;;;;;;;1.13;0.68;;;26.60;86.40;;;;;;5112737;27;20047;-87
2022/08/13 08:50:24;;;;;;;3.20;0.80;;;26.80;85.90;;;;;;5094044;27;20146;-88
2022/08/13 08:55:36;;;;;;;1.52;0.75;;;27.00;84.40;;;;;;5113211;27;20394;-88
2022/08/13 08:58:04;;;;;;;2.60;0.82;;;27.10;83.60;;;;;;5109713;27;20050;-87
2022/08/13 09:00:33;;;;;;;1.88;0.68;;;27.20;80.70;;;;;;5112178;27;20074;-87
2022/08/13 09:02:59;;;;;;;2.15;0.73;;;27.40;78.30;;;;;;5093726;27;20055;-88
2022/08/13 09:05:26;;;;;;;1.98;0.90;;;27.50;79.20;;;;;;5111750;27;20058;-87
2022/08/13 09:07:52;;;;;;;6.53;0.77;;;27.60;75.90;;;;;;5095250;27;20046;-87
2022/08/13 09:10:21;;;;;;;3.08;1.00;;;27.70;73.70;;;;;;5110447;27;20056;-88
2022/08/13 09:12:49;;;;;;;4.53;1.13;;;27.70;71.90;;;;;;5095398;27;20062;-88
2022/08/13 09:15:21;;;;;;;2.35;0.40;;;27.80;72.30;;;;;;5109863;27;20043;-88
2022/08/13 09:17:50;;;;;;;1.17;0.70;;;28.00;71.50;;;;;;5096100;27;20043;-87
2022/08/13 09:20:22;;;;;;;2.42;0.80;;;28.10;70.70;;;;;;5093957;27;20039;-86
2022/08/13 09:23:12;;;;;;;2.47;0.93;;;28.30;69.20;;;;;;5110739;27;20046;-88
2022/08/13 09:25:44;;;;;;;3.60;0.80;;;28.40;64.20;;;;;;5112679;27;20050;-88
2022/08/13 09:28:11;;;;;;;2.25;1.00;;;28.50;65.10;;;;;;5093157;27;20043;-88
2022/08/13 09:30:38;;;;;;;2.17;0.80;;;28.50;63.20;;;;;;5094782;27;20047;-86
2022/08/13 09:33:04;;;;;;;0.50;0.40;;;28.50;61.30;;;;;;5092862;27;20442;-88
2022/08/13 09:35:31;;;;;;;2.30;0.82;;;28.50;62.30;;;;;;5111262;27;20055;-87
2022/08/13 09:37:58;;;;;;;1.25;0.60;;;28.60;63.00;;;;;;5111986;27;20035;-88
2022/08/13 09:40:27;;;;;;;4.20;0.93;;;28.70;62.10;;;;;;5110307;27;20436;-89
2022/08/13 09:42:57;;;;;;;3.70;0.70;;;28.80;61.30;;;;;;5112225;27;20095;-88
2022/08/13 09:45:27;;;;;;;2.85;0.70;;;28.80;59.80;;;;;;5092624;27;20073;-89
2022/08/13 09:47:57;;;;;;;2.80;0.73;;;28.90;58.90;;;;;;5097726;27;20050;-94
2022/08/13 09:50:25;;;;;;;1.98;0.50;;;29.00;58.70;;;;;;5079932;27;20043;-91
2022/08/13 09:52:56;;;;;;;1.98;0.80;;;29.10;58.40;;;;;;5096297;27;20047;-94
2022/08/13 09:55:23;;;;;;;2.05;0.50;;;29.20;58.00;;;;;;5079343;27;20054;-94
2022/08/13 09:57:52;;;;;;;1.20;0.50;;;29.20;57.90;;;;;;5077017;27;20043;-90
2022/08/13 10:00:22;;;;;;;3.75;0.73;;;29.30;57.60;;;;;;5095233;27;20039;-88
2022/08/13 10:02:56;;;;;;;3.75;0.80;;;29.40;57.20;;;;;;5109418;27;20082;-90
2022/08/13 10:05:34;;;;;;;2.47;0.80;;;29.50;55.50;;;;;;5094627;27;20046;-93
2022/08/13 10:08:02;;;;;;;0.63;0.40;;;29.50;55.40;;;;;;5096059;27;20448;-91
2022/08/13 10:10:28;;;;;;;3.33;0.85;;;29.50;55.00;;;;;;5110697;28;20043;-91
2022/08/13 10:12:54;;;;;;;1.60;0.77;;;29.60;55.50;;;;;;5078600;27;20046;-91
2022/08/13 10:15:20;;;;;;;3.13;0.57;;;29.70;55.80;;;;;;5093164;27;20039;-91
2022/08/13 10:17:59;;;;;;;2.08;0.70;;;29.70;54.20;;;;;;5079430;27;20490;-91
2022/08/13 10:20:26;;;;;;;5.82;0.82;;;29.70;52.30;;;;;;5093844;27;20076;-90
2022/08/13 10:22:56;;;;;;;1.05;0.70;;;29.70;52.80;;;;;;5094624;27;20046;-85
2022/08/13 10:25:23;;;;;;;2.05;0.60;;;29.70;52.00;;;;;;5093489;27;20126;-86
2022/08/13 10:27:50;;;;;;;5.72;0.80;;;29.80;52.50;;;;;;5091663;27;20203;-85
2022/08/13 10:30:23;;;;;;;1.58;1.00;;;29.90;52.00;;;;;;5077072;27;20542;-85
2022/08/13 10:32:50;;;;;;;1.75;0.95;;;29.90;51.70;;;;;;5107975;27;20051;-87
2022/08/13 10:35:19;;;;;;;4.40;0.70;;;30.10;51.40;;;;;;5110522;27;20556;-87
2022/08/13 10:37:47;;;;;;;1.70;0.90;;;30.10;51.20;;;;;;5092323;27;20514;-86
2022/08/13 10:40:16;;;;;;;2.97;0.70;;;30.20;49.90;;;;;;5108748;27;20043;-85
2022/08/13 10:42:45;;;;;;;1.70;0.60;;;30.20;50.00;;;;;;5093403;27;20126;-86
2022/08/13 10:45:14;;;;;;;0.80;0.68;;;30.20;50.50;;;;;;5090796;27;20133;-85
2022/08/13 10:47:49;;;;;;;1.50;0.68;;;30.20;49.30;;;;;;5129229;27;20051;-85
2022/08/13 10:50:16;;;;;;;3.53;0.52;;;30.20;48.90;;;;;;5092372;27;20061;-85
2022/08/13 10:52:42;;;;;;;3.15;0.70;;;30.30;49.30;;;;;;5109617;27;20046;-85
2022/08/13 10:55:12;;;;;;;2.63;0.88;;;30.30;49.20;;;;;;5093325;27;20051;-86
2022/08/13 10:57:43;;;;;;;1.38;0.77;;;30.40;48.90;;;;;;5108754;27;20436;-85
2022/08/13 11:00:11;;;;;;;1.50;0.77;;;30.50;48.50;;;;;;5128682;27;20141;-85
2022/08/13 11:02:37;;;;;;;1.30;0.65;;;30.60;47.80;;;;;;5090932;27;20046;-87
2022/08/13 11:05:05;;;;;;;1.88;0.77;;;30.70;48.20;;;;;;5093067;27;20545;-88
2022/08/13 11:07:32;;;;;;;1.13;0.55;;;30.80;48.10;;;;;;5108657;27;20043;-86
2022/08/13 11:09:59;;;;;;;1.02;0.70;;;30.20;46.70;;;;;;5128277;27;20074;-87
2022/08/13 11:12:25;;;;;;;1.38;0.50;;;30.80;46.40;;;;;;5093143;27;20043;-87
2022/08/13 11:14:51;;;;;;;2.28;0.60;;;30.80;46.00;;;;;;5090867;27;20046;-88
2022/08/13 11:17:18;;;;;;;1.73;0.80;;;30.80;46.20;;;;;;5110197;27;20165;-87
2022/08/13 11:19:46;;;;;;;0.90;0.50;;;30.90;45.90;;;;;;5090553;27;20052;-87
2022/08/13 11:22:12;;;;;;;2.78;0.55;;;31.00;46.30;;;;;;5059716;27;20107;-87
2022/08/13 11:24:38;;;;;;;2.50;0.65;;;31.00;46.30;;;;;;5091673;27;20147;-87
2022/08/13 11:27:04;;;;;;;2.67;0.95;;;31.10;45.90;;;;;;5092764;27;20490;-87
2022/08/13 11:29:30;;;;;;;1.52;0.60;;;31.10;45.60;;;;;;5111313;27;20092;-87
2022/08/13 11:31:56;;;;;;;1.42;0.50;;;31.20;45.70;;;;;;5091319;28;20081;-87
2022/08/13 11:34:25;;;;;;;1.60;0.65;;;31.20;45.60;;;;;;5093391;27;20071;-87
2022/08/13 11:36:52;;;;;;;4.60;1.10;;;31.20;45.60;;;;;;5074283;28;20207;-87
2022/08/13 11:39:18;;;;;;;1.55;0.80;;;31.20;45.80;;;;;;5110400;28;20370;-87
2022/08/13 11:41:44;;;;;;;1.13;0.80;;;31.30;47.40;;;;;;5091336;28;20039;-88
2022/08/13 11:44:09;;;;;;;2.83;0.70;;;31.40;46.20;;;;;;5109215;28;20055;-87
2022/08/13 11:46:36;;;;;;;9.65;0.88;;;31.50;45.50;;;;;;5092260;28;20042;-88
2022/08/13 11:49:02;;;;;;;1.90;0.68;;;31.50;44.90;;;;;;5107775;28;20043;-87
2022/08/13 11:51:28;;;;;;;1.20;0.60;;;31.50;44.70;;;;;;5093066;28;20092;-87
2022/08/13 11:53:53;;;;;;;1.90;0.70;;;31.50;44.10;;;;;;5073750;28;20061;-87
2022/08/13 11:56:19;;;;;;;1.70;0.52;;;31.60;44.60;;;;;;5076459;28;20043;-87
2022/08/13 11:58:45;;;;;;;2.25;0.88;;;31.70;44.80;;;;;;5057120;28;20402;-87
2022/08/13 12:01:12;;;;;;;3.35;0.60;;;31.70;44.00;;;;;;5075156;28;20150;-87
2022/08/13 12:03:39;;;;;;;4.53;1.80;;;31.70;43.50;;;;;;5092003;28;20039;-88
2022/08/13 12:06:06;;;;;;;1.85;0.77;;;31.80;44.50;;;;;;5090537;28;20477;-87
2022/08/13 12:08:31;;;;;;;6.75;1.23;;;31.80;43.30;;;;;;5110315;28;20168;-88
2022/08/13 12:10:57;;;;;;;1.98;0.80;;;31.80;42.80;;;;;;5090016;28;20098;-87
2022/08/13 12:13:23;;;;;;;1.27;0.77;;;31.80;43.50;;;;;;5109421;28;20508;-87
2022/08/13 12:15:49;;;;;;;1.60;0.60;;;31.90;44.40;;;;;;5074014;28;20084;-87
2022/08/13 12:18:17;;;;;;;1.52;0.60;;;32.00;43.50;;;;;;5075340;28;20035;-87
2022/08/13 12:20:43;;;;;;;1.38;0.70;;;32.10;43.50;;;;;;5092131;28;20066;-87
2022/08/13 12:23:09;;;;;;;2.13;0.63;;;32.20;43.50;;;;;;5090667;28;20047;-87
2022/08/13 12:25:36;;;;;;;1.10;0.50;;;32.30;43.10;;;;;;5109823;28;20048;-87
2022/08/13 12:28:14;;;;;;;2.25;0.80;;;32.30;42.60;;;;;;5106797;28;20049;-87
2022/08/13 12:30:41;;;;;;;2.33;0.65;;;32.00;41.70;;;;;;5092311;28;20587;-87
2022/08/13 12:33:07;;;;;;;0.80;0.50;;;32.50;42.80;;;;;;5107288;27;20494;-87
2022/08/13 12:35:34;;;;;;;1.35;0.57;;;32.50;42.90;;;;;;5111306;27;20100;-87
2022/08/13 12:38:05;;;;;;;3.15;0.80;;;32.50;43.00;;;;;;5112869;27;20047;-87
2022/08/13 12:40:30;;;;;;;2.58;0.73;;;32.50;42.80;;;;;;5111063;27;20227;-87
2022/08/13 12:42:56;;;;;;;1.10;0.60;;;32.50;42.60;;;;;;5113543;27;20031;-87
2022/08/13 12:45:22;;;;;;;6.78;0.90;;;32.60;42.40;;;;;;5093830;27;20581;-87
2022/08/13 12:47:47;;;;;;;5.72;1.60;;;32.60;42.50;;;;;;5062533;27;20409;-87
2022/08/13 12:50:13;;;;;;;11.45;1.90;;;32.70;42.10;;;;;;5094336;27;20039;-87
2022/08/13 12:52:39;;;;;;;1.50;0.70;;;32.80;42.50;;;;;;5095063;27;20043;-87
2022/08/13 12:55:05;;;;;;;1.63;0.60;;;32.90;42.20;;;;;;5062087;27;20039;-87
2022/08/13 12:57:31;;;;;;;2.05;0.70;;;33.00;42.20;;;;;;5111389;27;20039;-87
2022/08/13 12:59:57;;;;;;;4.53;0.82;;;33.10;42.00;;;;;;5079360;27;20520;-87
2022/08/13 13:02:22;;;;;;;2.90;0.80;;;33.10;41.10;;;;;;5110121;27;20410;-87
2022/08/13 13:04:48;;;;;;;3.38;0.90;;;33.10;41.30;;;;;;5096180;27;20050;-87
2022/08/13 13:07:14;;;;;;;1.40;0.55;;;33.10;41.80;;;;;;5110872;27;20043;-87
2022/08/13 13:09:40;;;;;;;1.33;0.80;;;33.00;41.20;;;;;;5078423;27;20091;-87